createdAt,value
2017-10-27T00:01:13.332Z,16.33
2017-10-27T00:03:40.997Z,21.40
2017-10-27T00:06:09.786Z,21.97
2017-10-27T00:08:37.565Z,16.63
2017-10-27T00:11:05.626Z,19.63
2017-10-27T00:13:33.379Z,17.13
2017-10-27T00:16:01.931Z,18.17
2017-10-27T00:18:30.431Z,16.97
2017-10-27T00:20:58.241Z,17.23
2017-10-27T00:23:26.382Z,19.90
2017-10-27T00:25:54.541Z,19.73
2017-10-27T00:28:22.277Z,16.23
2017-10-27T00:30:49.956Z,24.43
2017-10-27T00:33:18.112Z,18.40
2017-10-27T00:35:46.292Z,17.20
2017-10-27T00:38:14.702Z,22.60
2017-10-27T00:40:42.425Z,22.57
2017-10-27T00:43:10.141Z,29.30
2017-10-27T00:45:38.255Z,32.60
2017-10-27T00:48:06.696Z,23.00
2017-10-27T00:50:34.421Z,28.87
2017-10-27T00:53:02.509Z,24.70
2017-10-27T00:55:30.952Z,24.20
2017-10-27T00:57:58.689Z,24.00
2017-10-27T01:00:26.373Z,21.90
2017-10-27T01:02:54.670Z,20.40
2017-10-27T01:05:23.152Z,19.50
2017-10-27T01:07:50.934Z,18.73
2017-10-27T01:10:19.517Z,22.63
2017-10-27T01:12:47.342Z,19.00
2017-10-27T01:15:15.436Z,22.83
2017-10-27T01:17:43.101Z,23.17
2017-10-27T01:20:10.860Z,19.50
2017-10-27T01:22:38.930Z,20.03
2017-10-27T01:25:06.663Z,19.33
2017-10-27T01:27:34.298Z,20.20
2017-10-27T01:30:02.052Z,22.10
2017-10-27T01:32:29.784Z,20.03
2017-10-27T01:34:57.525Z,17.67
2017-10-27T01:37:25.208Z,18.40
2017-10-27T01:39:52.964Z,20.10
2017-10-27T01:42:20.618Z,20.83
2017-10-27T01:44:48.291Z,20.50
2017-10-27T01:47:16.055Z,22.13
2017-10-27T01:49:44.496Z,20.63
2017-10-27T01:52:13.000Z,16.80
2017-10-27T01:54:40.782Z,14.40
2017-10-27T01:57:08.882Z,19.40
2017-10-27T01:59:36.624Z,18.23
2017-10-27T02:02:04.413Z,15.03
2017-10-27T02:04:32.036Z,12.80
2017-10-27T02:06:59.785Z,15.20
2017-10-27T02:09:27.568Z,16.00
2017-10-27T02:11:55.343Z,16.23
2017-10-27T02:14:23.078Z,13.00
2017-10-27T02:16:50.850Z,20.90
2017-10-27T02:19:18.609Z,14.80
2017-10-27T02:21:46.361Z,14.30
2017-10-27T02:24:14.545Z,15.63
2017-10-27T02:26:42.273Z,15.00
2017-10-27T02:29:10.058Z,17.37
2017-10-27T02:31:37.849Z,18.53
2017-10-27T02:34:05.664Z,13.67
2017-10-27T02:36:33.485Z,16.07
2017-10-27T02:39:01.253Z,16.10
2017-10-27T02:41:28.877Z,15.53
2017-10-27T02:43:57.043Z,12.60
2017-10-27T02:46:24.947Z,15.57
2017-10-27T02:48:53.128Z,12.90
2017-10-27T02:51:20.999Z,15.43
2017-10-27T02:53:48.621Z,13.20
2017-10-27T02:56:16.379Z,13.80
2017-10-27T02:58:44.489Z,12.50
2017-10-27T03:01:12.910Z,13.97
2017-10-27T03:03:41.138Z,17.63
2017-10-27T03:06:09.487Z,12.83
2017-10-27T03:08:37.216Z,13.07
2017-10-27T03:11:04.902Z,19.20
2017-10-27T03:13:32.602Z,11.03
2017-10-27T03:16:01.069Z,11.33
2017-10-27T03:18:28.801Z,9.90
2017-10-27T03:20:56.586Z,13.30
2017-10-27T03:23:24.358Z,13.70
2017-10-27T03:25:52.898Z,13.40
2017-10-27T03:28:20.819Z,13.20
2017-10-27T03:30:48.562Z,10.10
2017-10-27T03:33:16.276Z,13.57
2017-10-27T03:35:44.693Z,11.17
2017-10-27T03:38:12.441Z,11.57
2017-10-27T03:40:40.364Z,10.73
2017-10-27T03:43:08.519Z,12.63
2017-10-27T03:45:37.473Z,12.43
2017-10-27T03:48:05.137Z,14.33
2017-10-27T03:50:32.811Z,12.03
2017-10-27T03:53:00.913Z,12.23
2017-10-27T03:55:28.665Z,12.43
2017-10-27T03:57:57.082Z,13.60
2017-10-27T04:00:25.532Z,14.73
2017-10-27T04:02:53.261Z,14.87
2017-10-27T04:05:21.742Z,14.53
2017-10-27T04:07:49.512Z,12.57
2017-10-27T04:10:17.193Z,10.50
2017-10-27T04:12:44.938Z,12.60
2017-10-27T04:15:14.127Z,13.43
2017-10-27T04:17:42.693Z,12.07
2017-10-27T04:20:10.365Z,12.07
2017-10-27T04:22:38.109Z,14.13
2017-10-27T04:25:05.778Z,13.00
2017-10-27T04:27:33.442Z,13.13
2017-10-27T04:30:01.197Z,13.77
2017-10-27T04:32:28.865Z,15.63
2017-10-27T04:34:58.084Z,13.10
2017-10-27T04:37:25.765Z,16.90
2017-10-27T04:39:53.556Z,15.80
2017-10-27T04:42:21.545Z,12.50
2017-10-27T04:47:24.767Z,18.67
2017-10-27T04:49:53.268Z,13.13
2017-10-27T04:52:22.450Z,11.33
2017-10-27T04:54:50.216Z,13.87
2017-10-27T04:57:17.959Z,17.63
2017-10-27T04:59:45.726Z,15.83
2017-10-27T05:02:14.929Z,20.10
2017-10-27T05:04:42.655Z,14.70
2017-10-27T05:07:10.439Z,12.30
2017-10-27T05:09:38.939Z,13.50
2017-10-27T05:12:07.539Z,16.93
2017-10-27T05:14:35.389Z,16.07
2017-10-27T05:17:09.919Z,17.60
2017-10-27T05:19:43.247Z,17.20
2017-10-27T05:22:16.726Z,25.43
2017-10-27T05:24:44.528Z,18.60
2017-10-27T05:27:12.304Z,16.67
2017-10-27T05:29:40.151Z,17.20
2017-10-27T05:32:07.810Z,19.93
2017-10-27T05:34:35.489Z,15.13
2017-10-27T05:37:03.163Z,21.53
2017-10-27T05:39:30.969Z,12.30
2017-10-27T05:41:58.775Z,14.37
2017-10-27T05:44:26.942Z,12.97
2017-10-27T05:46:54.836Z,13.97
2017-10-27T05:49:22.601Z,14.43
2017-10-27T05:51:50.467Z,15.97
2017-10-27T05:54:18.310Z,13.80
2017-10-27T05:56:47.446Z,18.43
2017-10-27T05:59:15.812Z,18.63
2017-10-27T06:01:43.889Z,12.20
2017-10-27T06:04:11.545Z,15.63
2017-10-27T06:06:39.177Z,17.53
2017-10-27T06:09:06.941Z,14.80
2017-10-27T06:11:34.609Z,17.00
2017-10-27T06:14:02.504Z,13.50
2017-10-27T06:16:30.247Z,16.83
2017-10-27T06:18:58.001Z,17.20
2017-10-27T06:21:25.783Z,18.87
2017-10-27T06:23:53.637Z,15.23
2017-10-27T06:26:21.497Z,15.73
2017-10-27T06:28:49.683Z,17.83
2017-10-27T06:31:18.331Z,20.30
2017-10-27T06:33:46.106Z,16.10
2017-10-27T06:36:13.972Z,23.10
2017-10-27T06:38:42.585Z,22.10
2017-10-27T06:41:10.446Z,21.93
2017-10-27T06:43:38.220Z,23.50
2017-10-27T06:46:06.473Z,20.60
2017-10-27T06:48:34.358Z,20.57
2017-10-27T06:51:02.329Z,21.20
2017-10-27T06:53:30.238Z,23.80
2017-10-27T06:55:58.039Z,22.33
2017-10-27T06:58:25.793Z,25.23
2017-10-27T07:00:53.943Z,23.83
2017-10-27T07:03:21.800Z,23.37
2017-10-27T07:05:50.719Z,23.10
2017-10-27T07:08:18.581Z,26.13
2017-10-27T07:10:46.352Z,23.37
2017-10-27T07:13:14.529Z,33.23
2017-10-27T07:15:42.312Z,29.27
2017-10-27T07:18:10.195Z,27.40
2017-10-27T07:20:37.944Z,27.23
2017-10-27T07:23:05.585Z,27.40
2017-10-27T07:25:33.342Z,26.80
2017-10-27T07:28:02.218Z,25.57
2017-10-27T07:30:29.985Z,28.37
2017-10-27T07:32:57.721Z,23.43
2017-10-27T07:35:25.511Z,22.10
2017-10-27T07:37:53.177Z,21.63
2017-10-27T07:40:21.703Z,19.73
2017-10-27T07:42:49.438Z,20.33
2017-10-27T07:45:17.180Z,22.63
2017-10-27T07:47:44.839Z,18.03
2017-10-27T07:50:12.572Z,20.10
2017-10-27T07:52:40.376Z,21.10
2017-10-27T07:55:08.201Z,18.90
2017-10-27T08:00:15.330Z,18.60
2017-10-27T08:02:44.294Z,16.53
2017-10-27T08:05:12.113Z,16.57
2017-10-27T08:07:39.885Z,15.60
2017-10-27T08:10:07.601Z,16.80
2017-10-27T08:12:35.290Z,14.20
2017-10-27T08:15:02.977Z,14.40
2017-10-27T08:17:30.690Z,12.70
2017-10-27T08:19:58.454Z,14.40
2017-10-27T08:22:26.715Z,15.53
2017-10-27T08:24:54.514Z,14.23
2017-10-27T08:27:23.398Z,13.73
2017-10-27T08:29:51.178Z,11.83
2017-10-27T08:32:18.886Z,15.80
2017-10-27T08:34:47.111Z,16.40
2017-10-27T08:37:15.099Z,17.73
2017-10-27T08:39:44.021Z,22.40
2017-10-27T08:42:19.080Z,20.13
2017-10-27T08:44:46.971Z,17.73
2017-10-27T08:47:14.704Z,20.03
2017-10-27T08:49:43.675Z,20.37
2017-10-27T08:52:12.894Z,13.50
2017-10-27T08:54:40.726Z,20.73
2017-10-27T08:57:08.537Z,16.40
2017-10-27T08:59:37.127Z,13.40
2017-10-27T09:02:04.837Z,15.97
2017-10-27T09:04:32.663Z,15.23
2017-10-27T09:07:00.630Z,13.97
2017-10-27T09:09:29.690Z,16.73
2017-10-27T09:11:57.862Z,10.90
2017-10-27T09:14:25.674Z,14.60
2017-10-27T09:16:53.363Z,13.00
2017-10-27T09:19:21.043Z,14.73
2017-10-27T09:21:49.108Z,9.73
2017-10-27T09:24:16.873Z,11.43
2017-10-27T09:26:44.565Z,8.97
2017-10-27T09:29:12.383Z,10.30
2017-10-27T09:31:40.410Z,14.10
2017-10-27T09:34:08.563Z,11.87
2017-10-27T09:36:37.975Z,6.63
2017-10-27T09:39:07.358Z,8.07
2017-10-27T09:41:38.437Z,9.77
2017-10-27T09:44:06.365Z,10.67
2017-10-27T09:46:34.537Z,6.70
2017-10-27T09:49:03.047Z,5.60
2017-10-27T09:51:30.983Z,5.53
2017-10-27T09:53:59.799Z,8.20
2017-10-27T09:56:27.636Z,7.17
2017-10-27T09:58:56.110Z,5.87
2017-10-27T10:01:25.586Z,5.33
2017-10-27T10:03:53.450Z,7.70
2017-10-27T10:06:21.110Z,4.27
2017-10-27T10:08:48.920Z,5.43
2017-10-27T10:11:16.695Z,6.07
2017-10-27T10:13:44.523Z,4.83
2017-10-27T10:16:13.726Z,4.30
2017-10-27T10:18:42.281Z,13.70
2017-10-27T10:21:10.046Z,15.37
2017-10-27T10:23:38.568Z,7.47
2017-10-27T10:26:06.427Z,5.80
2017-10-27T10:28:34.084Z,5.83
2017-10-27T10:31:01.761Z,4.63
2017-10-27T10:33:29.409Z,5.90
2017-10-27T10:35:57.585Z,2.43
2017-10-27T10:38:25.227Z,2.13
2017-10-27T10:40:54.464Z,3.37
2017-10-27T10:43:23.353Z,2.93
2017-10-27T10:45:51.203Z,8.70
2017-10-27T10:48:18.962Z,2.50
2017-10-27T10:50:46.915Z,1.67
2017-10-27T10:53:15.962Z,4.60
2017-10-27T10:55:43.853Z,4.10
2017-10-27T10:58:13.177Z,3.30
2017-10-27T11:00:40.991Z,4.20
2017-10-27T11:03:08.898Z,2.30
2017-10-27T11:05:36.581Z,3.13
2017-10-27T11:08:04.333Z,2.87
2017-10-27T11:10:32.022Z,4.20
2017-10-27T11:13:00.566Z,4.47
2017-10-27T11:15:28.349Z,5.30
2017-10-27T11:17:56.205Z,5.93
2017-10-27T11:20:24.865Z,3.10
2017-10-27T11:22:52.584Z,5.40
2017-10-27T11:25:20.409Z,2.40
2017-10-27T11:27:48.861Z,2.40
2017-10-27T11:30:16.570Z,4.70
2017-10-27T11:32:44.639Z,2.50
2017-10-27T11:35:13.320Z,3.90
2017-10-27T11:37:41.099Z,2.37
2017-10-27T11:40:08.962Z,2.70
2017-10-27T11:42:36.798Z,3.10
2017-10-27T11:45:04.606Z,3.63
2017-10-27T11:47:33.854Z,2.90
2017-10-27T11:50:01.759Z,3.03
2017-10-27T11:52:29.613Z,3.20
2017-10-27T11:54:57.265Z,6.90
2017-10-27T11:57:25.003Z,3.17
2017-10-27T11:59:52.910Z,2.33
2017-10-27T12:02:20.794Z,3.57
2017-10-27T12:04:48.704Z,4.00
2017-10-27T12:07:16.803Z,3.90
2017-10-27T12:09:45.906Z,2.70
2017-10-27T12:12:13.732Z,3.20
2017-10-27T12:14:41.561Z,2.50
2017-10-27T12:17:09.686Z,5.83
2017-10-27T12:19:37.393Z,4.90
2017-10-27T12:22:05.075Z,2.63
2017-10-27T12:24:32.757Z,2.40
2017-10-27T12:27:00.646Z,5.07
2017-10-27T12:29:28.569Z,4.00
2017-10-27T12:31:56.470Z,4.33
2017-10-27T12:34:25.345Z,2.33
2017-10-27T12:36:57.238Z,3.17
2017-10-27T12:39:25.109Z,3.37
2017-10-27T12:41:52.890Z,3.87
2017-10-27T12:44:20.675Z,3.47
2017-10-27T12:46:48.490Z,3.07
2017-10-27T12:49:17.080Z,3.33
2017-10-27T12:51:45.345Z,5.30
2017-10-27T12:54:13.065Z,3.23
2017-10-27T12:56:40.688Z,4.90
2017-10-27T12:59:08.457Z,3.43
2017-10-27T13:01:36.553Z,3.90
2017-10-27T13:04:04.213Z,3.53
2017-10-27T13:06:32.217Z,3.60
2017-10-27T13:09:00.370Z,7.73
2017-10-27T13:11:28.015Z,7.93
2017-10-27T13:13:55.614Z,4.13
2017-10-27T13:16:23.847Z,3.70
2017-10-27T13:18:51.453Z,4.27
2017-10-27T13:21:19.141Z,4.60
2017-10-27T13:23:48.180Z,6.50
2017-10-27T13:26:17.460Z,4.43
2017-10-27T13:28:45.196Z,6.43
2017-10-27T13:31:12.922Z,7.47
2017-10-27T13:33:40.578Z,5.07
2017-10-27T13:36:08.716Z,3.80
2017-10-27T13:38:36.325Z,3.17
2017-10-27T13:41:03.953Z,4.27
2017-10-27T13:43:31.698Z,5.80
2017-10-27T13:46:00.101Z,4.33
2017-10-27T13:48:28.179Z,5.70
2017-10-27T13:50:56.294Z,3.73
2017-10-27T13:53:24.098Z,4.63
2017-10-27T13:55:52.199Z,5.30
2017-10-27T13:58:20.145Z,5.80
2017-10-27T14:00:48.014Z,10.43
2017-10-27T14:03:16.273Z,6.87
2017-10-27T14:05:44.096Z,5.77
2017-10-27T14:08:12.653Z,6.07
2017-10-27T14:10:40.490Z,8.13
2017-10-27T14:13:08.265Z,6.27
2017-10-27T14:15:36.076Z,4.87
2017-10-27T14:18:04.334Z,5.77
2017-10-27T14:20:31.996Z,6.57
2017-10-27T14:22:59.882Z,3.57
2017-10-27T14:25:28.184Z,6.07
2017-10-27T14:27:56.837Z,6.47
2017-10-27T14:30:26.000Z,5.03
2017-10-27T14:32:54.250Z,3.53
2017-10-27T14:35:22.129Z,3.07
2017-10-27T14:37:50.008Z,4.57
2017-10-27T14:40:17.671Z,4.93
2017-10-27T14:42:45.329Z,3.83
2017-10-27T14:45:13.064Z,4.67
2017-10-27T14:47:40.945Z,4.80
2017-10-27T14:50:10.262Z,4.97
2017-10-27T14:52:38.081Z,6.13
2017-10-27T14:55:05.961Z,3.40
2017-10-27T14:57:34.896Z,5.90
2017-10-27T15:00:02.728Z,5.80
2017-10-27T15:02:30.661Z,5.93
2017-10-27T15:04:58.856Z,5.63
2017-10-27T15:07:26.802Z,5.00
2017-10-27T15:09:54.598Z,7.23
2017-10-27T15:12:22.531Z,3.70
2017-10-27T15:14:51.140Z,4.10
2017-10-27T15:17:19.975Z,3.57
2017-10-27T15:19:47.713Z,5.20
2017-10-27T15:22:15.529Z,4.03
2017-10-27T15:24:43.365Z,3.70
2017-10-27T15:27:11.297Z,2.90
2017-10-27T15:29:39.193Z,4.10
2017-10-27T15:32:07.046Z,3.53
2017-10-27T15:34:35.675Z,3.80
2017-10-27T15:37:03.369Z,4.93
2017-10-27T15:39:31.017Z,5.73
2017-10-27T15:41:59.150Z,3.30
2017-10-27T15:44:28.338Z,8.63
2017-10-27T15:46:56.649Z,2.87
2017-10-27T15:49:24.550Z,2.97
2017-10-27T15:51:52.828Z,2.40
2017-10-27T15:54:20.622Z,2.43
2017-10-27T15:56:48.411Z,2.50
2017-10-27T15:59:16.598Z,2.13
2017-10-27T16:01:44.907Z,4.07
2017-10-27T16:04:13.681Z,4.47
2017-10-27T16:06:42.304Z,2.70
2017-10-27T16:09:11.320Z,3.73
2017-10-27T16:11:39.116Z,4.63
2017-10-27T16:14:07.400Z,4.47
2017-10-27T16:16:36.381Z,3.43
2017-10-27T16:19:05.424Z,9.20
2017-10-27T16:21:33.212Z,7.80
2017-10-27T16:24:01.348Z,5.67
2017-10-27T16:26:29.246Z,9.63
2017-10-27T16:28:57.058Z,6.60
2017-10-27T16:31:24.805Z,5.63
2017-10-27T16:33:53.075Z,8.03
2017-10-27T16:36:20.706Z,5.97
2017-10-27T16:38:49.131Z,4.27
2017-10-27T16:41:17.277Z,6.90
2017-10-27T16:43:45.360Z,4.53
2017-10-27T16:46:13.556Z,5.30
2017-10-27T16:48:42.512Z,4.57
2017-10-27T16:51:10.397Z,3.13
2017-10-27T16:53:39.016Z,3.27
2017-10-27T16:56:07.587Z,5.10
2017-10-27T16:58:36.446Z,5.40
2017-10-27T17:01:04.207Z,4.00
2017-10-27T17:03:31.965Z,5.20
2017-10-27T17:05:59.803Z,9.83
2017-10-27T17:08:29.021Z,6.93
2017-10-27T17:10:56.824Z,4.77
2017-10-27T17:13:24.767Z,4.90
2017-10-27T17:15:53.462Z,8.70
2017-10-27T17:18:21.872Z,7.43
2017-10-27T17:20:50.999Z,3.87
2017-10-27T17:23:18.871Z,11.60
2017-10-27T17:25:46.574Z,21.30
2017-10-27T17:28:15.014Z,5.13
2017-10-27T17:30:42.673Z,3.30
2017-10-27T17:33:11.859Z,5.40
2017-10-27T17:35:40.093Z,6.40
2017-10-27T17:38:08.050Z,7.80
2017-10-27T17:40:35.883Z,9.83
2017-10-27T17:43:03.571Z,8.13
2017-10-27T17:45:31.997Z,9.03
2017-10-27T17:47:59.767Z,20.17
2017-10-27T17:50:27.606Z,12.37
2017-10-27T17:52:55.849Z,10.47
2017-10-27T17:55:23.817Z,7.90
2017-10-27T17:57:52.474Z,4.00
2017-10-27T18:00:20.422Z,12.40
2017-10-27T18:02:48.309Z,4.40
2017-10-27T18:05:17.461Z,4.70
2017-10-27T18:07:45.182Z,11.97
2017-10-27T18:10:12.912Z,8.37
2017-10-27T18:12:40.617Z,5.80
2017-10-27T18:15:08.261Z,9.83
2017-10-27T18:17:36.522Z,9.70
2017-10-27T18:20:04.956Z,7.60
2017-10-27T18:22:32.765Z,18.80
2017-10-27T18:25:00.566Z,6.37
2017-10-27T18:27:28.374Z,8.27
2017-10-27T18:29:56.178Z,12.00
2017-10-27T18:32:23.919Z,6.80
2017-10-27T18:34:52.456Z,5.40
2017-10-27T18:37:20.394Z,24.63
2017-10-27T18:39:48.329Z,8.73
2017-10-27T18:42:16.208Z,6.03
2017-10-27T18:44:44.970Z,7.57
2017-10-27T18:47:13.037Z,5.53
2017-10-27T18:49:40.740Z,7.53
2017-10-27T18:52:09.020Z,12.77
2017-10-27T18:54:36.805Z,9.43
2017-10-27T18:57:04.540Z,15.97
2017-10-27T18:59:33.193Z,6.57
2017-10-27T19:02:02.132Z,6.20
2017-10-27T19:04:31.229Z,9.47
2017-10-27T19:07:00.281Z,7.40
2017-10-27T19:09:29.179Z,8.30
2017-10-27T19:11:57.472Z,10.20
2017-10-27T19:14:26.539Z,8.80
2017-10-27T19:16:54.831Z,9.53
2017-10-27T19:19:23.094Z,6.97
2017-10-27T19:21:51.665Z,8.20
2017-10-27T19:24:19.925Z,9.13
2017-10-27T19:26:48.479Z,11.10
2017-10-27T19:29:17.570Z,5.60
2017-10-27T19:31:45.775Z,6.20
2017-10-27T19:34:14.304Z,8.57
2017-10-27T19:36:42.341Z,7.37
2017-10-27T19:39:10.545Z,6.80
2017-10-27T19:41:39.166Z,7.60
2017-10-27T19:44:07.569Z,6.50
2017-10-27T19:46:35.795Z,7.40
2017-10-27T19:49:04.864Z,7.40
2017-10-27T19:51:33.595Z,5.87
2017-10-27T19:54:01.774Z,5.40
2017-10-27T19:56:29.990Z,6.63
2017-10-27T19:58:58.480Z,5.20
2017-10-27T20:01:27.737Z,5.20
2017-10-27T20:03:56.751Z,5.30
2017-10-27T20:06:25.351Z,5.10
2017-10-27T20:08:54.065Z,5.37
2017-10-27T20:11:22.409Z,5.83
2017-10-27T20:13:51.057Z,5.03
2017-10-27T20:16:19.896Z,5.57
2017-10-27T20:18:48.453Z,4.90
2017-10-27T20:21:16.955Z,8.67
2017-10-27T20:23:45.321Z,7.20
2017-10-27T20:26:14.419Z,6.43
2017-10-27T20:28:43.220Z,9.83
2017-10-27T20:31:11.789Z,5.27
2017-10-27T20:33:40.435Z,9.33
2017-10-27T20:36:08.940Z,6.53
2017-10-27T20:38:37.572Z,7.67
2017-10-27T20:41:06.059Z,9.00
2017-10-27T20:43:34.702Z,9.20
2017-10-27T20:46:03.198Z,7.03
2017-10-27T20:48:31.994Z,8.47
2017-10-27T20:51:00.582Z,9.80
2017-10-27T20:53:28.863Z,10.40
2017-10-27T20:55:57.116Z,11.23
2017-10-27T20:58:25.696Z,10.80
2017-10-27T21:00:53.941Z,9.87
2017-10-27T21:03:22.515Z,7.13
2017-10-27T21:05:51.046Z,7.37
2017-10-27T21:08:20.377Z,6.27
2017-10-27T21:10:48.857Z,9.33
2017-10-27T21:13:17.419Z,7.03
2017-10-27T21:15:45.632Z,8.20
2017-10-27T21:18:14.165Z,9.87
2017-10-27T21:20:42.738Z,7.07
2017-10-27T21:23:11.996Z,8.87
2017-10-27T21:25:40.200Z,13.17
2017-10-27T21:28:08.693Z,9.00
2017-10-27T21:30:37.941Z,7.47
2017-10-27T21:33:06.405Z,8.03
2017-10-27T21:35:34.927Z,7.10
2017-10-27T21:38:03.630Z,8.07
2017-10-27T21:40:32.322Z,8.40
2017-10-27T21:43:00.590Z,9.67
2017-10-27T21:45:29.054Z,9.30
2017-10-27T21:47:57.671Z,11.00
2017-10-27T21:50:26.229Z,16.67
2017-10-27T21:52:54.783Z,17.13
2017-10-27T21:55:23.441Z,14.90
2017-10-27T21:57:52.501Z,20.40
2017-10-27T22:00:21.152Z,15.03
2017-10-27T22:02:49.741Z,14.30
2017-10-27T22:05:17.869Z,12.50
2017-10-27T22:07:46.459Z,18.03
2017-10-27T22:10:15.074Z,9.80
2017-10-27T22:12:43.588Z,8.67
2017-10-27T22:15:12.443Z,10.43
2017-10-27T22:17:41.537Z,14.40
2017-10-27T22:20:10.692Z,8.70
2017-10-27T22:22:39.508Z,10.50
2017-10-27T22:25:08.990Z,9.20
2017-10-27T22:27:37.340Z,10.30
2017-10-27T22:30:05.415Z,8.13
2017-10-27T22:32:33.962Z,12.40
2017-10-27T22:35:02.666Z,8.83
2017-10-27T22:37:30.897Z,9.57
2017-10-27T22:39:59.389Z,16.60
2017-10-27T22:42:27.961Z,48.50
2017-10-27T22:44:56.363Z,15.63
2017-10-27T22:47:25.080Z,11.13
2017-10-27T22:49:53.760Z,10.83
2017-10-27T22:52:22.063Z,11.63
2017-10-27T22:54:50.471Z,11.57
2017-10-27T22:57:19.405Z,10.70
2017-10-27T22:59:48.070Z,15.47
2017-10-27T23:02:16.799Z,13.70
2017-10-27T23:04:45.047Z,10.50
2017-10-27T23:07:13.191Z,8.93
2017-10-27T23:09:49.409Z,15.77
2017-10-27T23:12:18.372Z,11.53
2017-10-27T23:14:46.713Z,9.47
2017-10-27T23:17:15.119Z,15.20
2017-10-27T23:19:43.117Z,9.40
2017-10-27T23:22:11.454Z,11.63
2017-10-27T23:24:39.482Z,13.37
2017-10-27T23:27:08.425Z,8.63
2017-10-27T23:29:37.157Z,10.80
2017-10-27T23:32:06.253Z,11.70
2017-10-27T23:34:34.630Z,9.87
2017-10-27T23:37:02.988Z,8.30
2017-10-27T23:39:30.614Z,8.97
2017-10-27T23:41:58.585Z,11.60
2017-10-27T23:44:27.011Z,16.70
2017-10-27T23:46:55.333Z,9.77
2017-10-27T23:49:23.720Z,11.83
2017-10-27T23:51:52.125Z,9.93
2017-10-27T23:54:20.480Z,10.37
2017-10-27T23:56:48.552Z,10.00
2017-10-27T23:59:20.714Z,9.83
